createdAt,value
2023-03-29T00:03:16.005Z,18.8
2023-03-29T00:08:52.679Z,18.2
2023-03-29T00:14:44.108Z,18
2023-03-29T00:20:36.136Z,17.8
2023-03-29T00:26:27.746Z,17.7
2023-03-29T00:32:04.547Z,17.4
2023-03-29T00:37:56.525Z,19.4
2023-03-29T00:43:17.752Z,20.6
2023-03-29T00:48:38.520Z,20
2023-03-29T00:54:15.141Z,19.1
2023-03-29T00:59:51.224Z,18.4
2023-03-29T01:05:28.379Z,18
2023-03-29T01:10:48.911Z,17.9
2023-03-29T01:16:24.758Z,17.6
2023-03-29T01:22:16.628Z,17.6
2023-03-29T01:28:07.464Z,17.5
2023-03-29T01:33:59.292Z,19.9
2023-03-29T01:39:51.380Z,20.8
2023-03-29T01:45:11.622Z,19.5
2023-03-29T01:50:48.074Z,18.8
2023-03-29T01:56:40.442Z,18.2
2023-03-29T02:02:16.592Z,17.9
2023-03-29T02:08:08.974Z,17.8
2023-03-29T02:14:01.030Z,17.6
2023-03-29T02:19:37.249Z,17.4
2023-03-29T02:25:13.826Z,18.8
2023-03-29T02:31:05.632Z,19.6
2023-03-29T02:36:42.438Z,19.4
2023-03-29T02:42:18.257Z,20.6
2023-03-29T02:47:41.582Z,19.8
2023-03-29T02:53:33.501Z,18.9
2023-03-29T02:59:25.402Z,18.2
2023-03-29T03:05:02.246Z,17.8
2023-03-29T03:10:52.964Z,17.7
2023-03-29T03:16:44.780Z,17.5
2023-03-29T03:22:25.257Z,17.3
2023-03-29T03:28:01.259Z,18.9
2023-03-29T03:33:53.105Z,20.2
2023-03-29T03:39:30.129Z,20.8
2023-03-29T03:44:54.333Z,19.1
2023-03-29T03:50:31.018Z,18.5
2023-03-29T03:56:07.420Z,17.9
2023-03-29T04:01:43.890Z,17.8
2023-03-29T04:07:36.954Z,17.6
2023-03-29T04:13:13.589Z,17.4
2023-03-29T04:19:06.709Z,17.2
2023-03-29T04:24:59.209Z,19.4
2023-03-29T04:30:51.093Z,20.4
2023-03-29T04:36:45.699Z,20.4
2023-03-29T04:42:23.422Z,19
2023-03-29T04:48:00.439Z,18.3
2023-03-29T04:53:51.688Z,17.8
2023-03-29T04:59:45.648Z,17.7
2023-03-29T05:05:37.254Z,17.4
2023-03-29T05:11:31.374Z,17.3
2023-03-29T05:17:23.589Z,17.8
2023-03-29T05:23:15.607Z,19.8
2023-03-29T05:29:06.495Z,20.6
2023-03-29T05:34:42.477Z,19.6
2023-03-29T05:45:47.520Z,18.1
2023-03-29T05:51:24.210Z,17.6
2023-03-29T05:57:16.487Z,17.6
2023-03-29T06:03:17.842Z,17.3
2023-03-29T06:09:13.343Z,17.2
2023-03-29T06:15:05.078Z,18.9
2023-03-29T06:20:56.913Z,18.4
2023-03-29T06:26:49.295Z,19.5
2023-03-29T06:32:43.849Z,20.5
2023-03-29T06:38:20.154Z,19.4
2023-03-29T06:44:09.165Z,18.1
2023-03-29T06:50:00.702Z,17.6
2023-03-29T06:55:36.589Z,17.4
2023-03-29T07:01:13.618Z,17.3
2023-03-29T07:06:35.506Z,17.8
2023-03-29T07:12:27.514Z,19.7
2023-03-29T07:18:21.264Z,20.6
2023-03-29T07:23:42.464Z,19
2023-03-29T07:29:47.411Z,18
2023-03-29T07:35:24.834Z,17.6
2023-03-29T07:41:01.417Z,17.3
2023-03-29T07:46:52.305Z,17.2
2023-03-29T07:52:43.763Z,17.6
2023-03-29T07:58:35.828Z,19.8
2023-03-29T08:04:31.405Z,20.6
2023-03-29T08:10:05.217Z,18.9
2023-03-29T08:15:43.002Z,18.3
2023-03-29T08:21:30.092Z,17.6
2023-03-29T08:27:06.405Z,17.3
2023-03-29T08:32:59.251Z,17.1
2023-03-29T08:38:51.197Z,19.8
2023-03-29T08:44:27.518Z,20.7
2023-03-29T08:49:54.705Z,18.8
2023-03-29T08:54:59.490Z,18.3
2023-03-29T09:00:35.946Z,18
2023-03-29T09:05:57.767Z,17.7
2023-03-29T09:11:34.985Z,17.4
2023-03-29T09:17:11.892Z,19.6
2023-03-29T09:22:49.414Z,20.7
2023-03-29T09:28:38.445Z,18.8
2023-03-29T09:33:44.417Z,17.9
2023-03-29T09:39:21.154Z,17.6
2023-03-29T09:45:21.291Z,18.9
2023-03-29T09:51:10.002Z,20.6
2023-03-29T09:56:47.932Z,18.8
2023-03-29T10:02:24.681Z,18
2023-03-29T10:08:01.752Z,17.6
2023-03-29T10:13:40.974Z,18.6
2023-03-29T10:19:27.801Z,20.5
2023-03-29T10:24:52.648Z,19.1
2023-03-29T10:30:30.706Z,18
2023-03-29T10:36:07.561Z,17.6
2023-03-29T10:41:43.312Z,19.2
2023-03-29T10:47:04.514Z,20.8
2023-03-29T10:52:41.543Z,18.8
2023-03-29T10:58:17.744Z,17.9
2023-03-29T11:03:39.890Z,17.5
2023-03-29T11:09:15.816Z,17.3
2023-03-29T11:15:04.253Z,18.6
2023-03-29T11:20:25.786Z,19.6
2023-03-29T11:25:47.286Z,18.4
2023-03-29T11:31:08.160Z,17.9
2023-03-29T11:36:45.473Z,17.7
2023-03-29T11:41:50.823Z,17.4
2023-03-29T11:47:42.924Z,19.7
2023-03-29T11:53:21.565Z,19.4
2023-03-29T11:58:42.761Z,18.5
2023-03-29T12:04:21.461Z,18.1
2023-03-29T12:09:58.133Z,17.9
2023-03-29T12:15:21.486Z,17.6
2023-03-29T12:21:00.891Z,19.3
2023-03-29T12:26:37.706Z,19.8
2023-03-29T12:37:35.809Z,18.3
2023-03-29T12:43:27.765Z,18
2023-03-29T12:49:21.063Z,17.8
2023-03-29T12:55:12.700Z,17.6
2023-03-29T13:00:50.012Z,20.3
2023-03-29T13:06:42.423Z,19.3
2023-03-29T13:12:33.744Z,18.6
2023-03-29T13:18:40.752Z,18.3
2023-03-29T13:24:31.797Z,17.9
2023-03-29T13:30:23.298Z,17.6
2023-03-29T13:36:00.066Z,17.4
2023-03-29T13:41:51.774Z,19.1
2023-03-29T13:47:54.776Z,20.4
2023-03-29T13:53:50.737Z,18.9
2023-03-29T13:59:45.671Z,18.4
2023-03-29T14:05:37.506Z,18.1
2023-03-29T14:11:29.459Z,17.9
2023-03-29T14:17:28.471Z,17.6
2023-03-29T14:23:20.446Z,17.3
2023-03-29T14:28:57.416Z,17.1
2023-03-29T14:34:48.923Z,16.9
2023-03-29T14:40:41.612Z,16.7
2023-03-29T14:46:34.223Z,16.4
2023-03-29T14:52:24.932Z,16.3
2023-03-29T14:58:16.726Z,16.1
2023-03-29T15:04:12.227Z,16
2023-03-29T15:10:13.440Z,15.9
2023-03-29T15:16:05.988Z,15.8
2023-03-29T15:23:13.621Z,15.8
2023-03-29T15:28:52.047Z,15.8
2023-03-29T15:34:59.962Z,15.8
2023-03-29T15:41:04.101Z,15.8
2023-03-29T15:46:55.401Z,15.9
2023-03-29T15:52:46.839Z,16.1
2023-03-29T15:58:50.937Z,16.3
2023-03-29T16:04:42.705Z,16.4
2023-03-29T16:10:20.369Z,16.1
2023-03-29T16:16:13.023Z,16.1
2023-03-29T16:22:04.553Z,16.4
2023-03-29T16:27:40.155Z,16.6
2023-03-29T16:33:17.405Z,16.6
2023-03-29T16:39:09.254Z,16.6
2023-03-29T16:45:01.246Z,16.6
2023-03-29T16:50:23.104Z,16.8
2023-03-29T16:55:58.638Z,16.9
2023-03-29T17:01:53.315Z,17.1
2023-03-29T17:07:46.172Z,17.3
2023-03-29T17:13:38.535Z,17.4
2023-03-29T17:19:15.062Z,17.4
2023-03-29T17:25:06.913Z,17.6
2023-03-29T17:30:58.053Z,17.6
2023-03-29T17:36:50.402Z,17.6
2023-03-29T17:42:43.313Z,17.5
2023-03-29T17:48:38.684Z,17.4
2023-03-29T17:54:30.331Z,17.4
2023-03-29T18:00:22.810Z,17.5
2023-03-29T18:06:15.501Z,17.4
2023-03-29T18:12:07.058Z,17.4
2023-03-29T18:17:59.604Z,17.4
2023-03-29T18:23:49.962Z,17.4
2023-03-29T18:29:10.840Z,17.5
2023-03-29T18:35:03.539Z,17.3
2023-03-29T18:40:58.956Z,17.4
2023-03-29T18:46:50.900Z,17.3
2023-03-29T18:52:45.322Z,17.3
2023-03-29T18:58:38.487Z,17.3
2023-03-29T19:04:31.433Z,17.4
2023-03-29T19:09:53.100Z,17.4
2023-03-29T19:15:29.061Z,17.4
2023-03-29T19:21:21.074Z,17.3
2023-03-29T19:27:13.942Z,17.2
2023-03-29T19:33:07.577Z,17.1
2023-03-29T19:44:20.037Z,16.9
2023-03-29T19:50:18.582Z,16.8
2023-03-29T19:56:10.770Z,16.7
2023-03-29T20:01:48.278Z,16.6
2023-03-29T20:07:25.245Z,16.6
2023-03-29T20:13:27.873Z,16.4
2023-03-29T20:19:27.676Z,16.4
2023-03-29T20:25:03.821Z,16.3
2023-03-29T20:30:55.326Z,16.2
2023-03-29T20:36:48.231Z,16.1
2023-03-29T20:42:43.668Z,16.1
2023-03-29T20:48:35.541Z,16
2023-03-29T20:54:27.758Z,15.9
2023-03-29T21:00:19.201Z,15.9
2023-03-29T21:05:55.684Z,17.9
2023-03-29T21:11:49.624Z,18.5
2023-03-29T21:17:44.740Z,18.3
2023-03-29T21:23:19.332Z,17.9
2023-03-29T21:29:11.697Z,17.7
2023-03-29T21:35:04.041Z,17.4
2023-03-29T21:40:55.798Z,18.6
2023-03-29T21:46:47.876Z,20.9
2023-03-29T21:52:39.765Z,19.3
2023-03-29T21:58:15.055Z,18.8
2023-03-29T22:03:52.277Z,18.4
2023-03-29T22:09:55.255Z,18.2
2023-03-29T22:15:46.588Z,17.9
2023-03-29T22:21:39.508Z,17.6
2023-03-29T22:27:31.523Z,18.9
2023-03-29T22:33:23.730Z,21.2
2023-03-29T22:39:16.182Z,19.4
2023-03-29T22:45:08.031Z,18.8
2023-03-29T22:51:00.095Z,18.4
2023-03-29T22:56:51.694Z,18.1
2023-03-29T23:02:28.930Z,17.8
2023-03-29T23:08:04.543Z,17.7
2023-03-29T23:13:55.782Z,20.7
2023-03-29T23:19:31.594Z,20
2023-03-29T23:25:24.768Z,18.9
2023-03-29T23:31:16.555Z,18.5
2023-03-29T23:36:52.900Z,18.2
2023-03-29T23:42:44.285Z,17.9
2023-03-29T23:48:37.388Z,17.8
2023-03-29T23:54:28.228Z,20.8
